Liberty, Minnesota
Current Conditions -  °F | °C
As of 9:13 AM on Wednesday 26 Nov 2014 (Local Time) from KBJI Reporting Station
Light Snow Light Snow  
Wind Chill: -7°   Ceiling: 1200
Heat Index:   Visibility: 5mi
Dew Point:   Wind: 12mph
Humidity: 81%   Direction: 340°NNW
Pressure: 30.26"   Gusts: NA
Location:  47.7369°N, 94.9947°W
Report Text: KBJI 261513Z AUTO 34010KT 5SM -SN BKN012 M13/M16 A3026 RMK AO2 T11341161
Loading
Personal Weather Stations






























Interactive Weather Map New forecast layout! Learn more

10-Day Weather Forecast

Advertisements
Track Severe Weather on mobile